Time;durP1;ratioP1;P1;durP2;ratioP2;P2;SDS_P1;SDS_P2;PMS_P1;PMS_P2;Temp;Humidity;BMP_temperature;BMP_pressure;BME280_temperature;BME280_humidity;BME280_pressure;Samples;Min_cycle;Max_cycle;Signal;HPM_P1;HPM_P2
2023/01/26 00:00:03;;;;;;;25.60;9.87;;;;;;;;;;5080668;28;20436;-80
2023/01/26 00:02:30;;;;;;;15.90;8.87;;;;;;;;;;5093509;28;20461;-80
2023/01/26 00:04:57;;;;;;;23.50;9.23;;;;;;;;;;5094277;28;20451;-78
2023/01/26 00:07:24;;;;;;;11.27;5.90;;;;;;;;;;5093294;28;20476;-80
2023/01/26 00:09:51;;;;;;;14.50;8.77;;;;;;;;;;5093757;28;20446;-80
2023/01/26 00:12:19;;;;;;;18.03;7.67;;;;;;;;;;5093565;28;20475;-69
2023/01/26 00:14:52;;;;;;;11.77;6.33;;;;;;;;;;5094527;28;20444;-80
2023/01/26 00:17:27;;;;;;;22.60;9.83;;;;;;;;;;5093013;28;20455;-73
2023/01/26 00:19:55;;;;;;;14.53;7.37;;;;;;;;;;5093551;28;20439;-80
2023/01/26 00:22:22;;;;;;;15.37;7.87;;;;;;;;;;5093302;28;20456;-79
2023/01/26 00:24:49;;;;;;;17.53;11.63;;;;;;;;;;5094027;28;20441;-78
2023/01/26 00:27:16;;;;;;;11.33;7.60;;;;;;;;;;5093604;28;20980;-81
2023/01/26 00:29:44;;;;;;;18.10;7.57;;;;;;;;;;5093627;28;20483;-80
2023/01/26 00:32:11;;;;;;;12.67;8.17;;;;;;;;;;5084357;28;20451;-81
2023/01/26 00:34:39;;;;;;;18.10;8.80;;;;;;;;;;5092875;28;20450;-80
2023/01/26 00:37:06;;;;;;;18.83;9.80;;;;;;;;;;5092834;28;20452;-80
2023/01/26 00:39:33;;;;;;;18.87;8.13;;;;;;;;;;5092669;28;20449;-81
2023/01/26 00:42:08;;;;;;;15.53;8.40;;;;;;;;;;5093231;28;20476;-80
2023/01/26 00:44:36;;;;;;;13.47;7.97;;;;;;;;;;5085593;28;20473;-80
2023/01/26 00:47:03;;;;;;;15.47;9.23;;;;;;;;;;5091685;28;20481;-79
2023/01/26 00:49:30;;;;;;;12.87;7.17;;;;;;;;;;5092454;28;20448;-80
2023/01/26 00:51:58;;;;;;;16.93;7.93;;;;;;;;;;5092982;28;20545;-81
2023/01/26 00:54:25;;;;;;;16.20;8.47;;;;;;;;;;5092628;28;20457;-80
2023/01/26 00:56:52;;;;;;;11.73;7.63;;;;;;;;;;5093265;28;20445;-80
2023/01/26 00:59:20;;;;;;;17.53;7.90;;;;;;;;;;5084164;28;20439;-79
2023/01/26 01:01:47;;;;;;;18.50;8.53;;;;;;;;;;5093234;28;20458;-80
2023/01/26 01:04:14;;;;;;;11.23;6.43;;;;;;;;;;5092842;28;20898;-80
2023/01/26 01:06:42;;;;;;;13.47;6.50;;;;;;;;;;5092473;28;20483;-80
2023/01/26 01:09:10;;;;;;;12.47;9.27;;;;;;;;;;5092155;28;20984;-80
2023/01/26 01:11:37;;;;;;;16.17;7.90;;;;;;;;;;5092241;28;20455;-80
2023/01/26 01:14:05;;;;;;;16.23;10.33;;;;;;;;;;5093306;28;20471;-80
2023/01/26 01:16:32;;;;;;;17.90;9.37;;;;;;;;;;5092000;28;20456;-80
2023/01/26 01:18:59;;;;;;;15.37;8.73;;;;;;;;;;5092156;28;20443;-79
2023/01/26 01:21:26;;;;;;;16.90;10.20;;;;;;;;;;5092883;28;20440;-79
2023/01/26 01:23:53;;;;;;;19.07;8.97;;;;;;;;;;5092882;28;20444;-80
2023/01/26 01:26:22;;;;;;;15.93;9.10;;;;;;;;;;5093049;28;20501;-79
2023/01/26 01:28:49;;;;;;;13.43;6.70;;;;;;;;;;5096388;28;20448;-76
2023/01/26 01:31:17;;;;;;;15.60;8.50;;;;;;;;;;5106258;28;20448;-78
2023/01/26 01:33:44;;;;;;;18.43;8.50;;;;;;;;;;5099622;28;20448;-80
2023/01/26 01:36:12;;;;;;;20.20;9.03;;;;;;;;;;5109963;28;20447;-73
2023/01/26 01:38:39;;;;;;;20.23;10.30;;;;;;;;;;5115233;28;20473;-80
2023/01/26 01:41:07;;;;;;;17.37;10.30;;;;;;;;;;5114683;28;20508;-80
2023/01/26 01:43:35;;;;;;;19.70;11.40;;;;;;;;;;5112915;28;20549;-77
2023/01/26 01:46:04;;;;;;;16.50;8.20;;;;;;;;;;5105284;28;20557;-78
2023/01/26 01:48:35;;;;;;;17.87;7.37;;;;;;;;;;5106048;28;20504;-80
2023/01/26 01:51:05;;;;;;;19.67;7.00;;;;;;;;;;5106010;28;20522;-80
2023/01/26 01:53:34;;;;;;;14.67;6.73;;;;;;;;;;5102637;28;20445;-79
2023/01/26 01:56:03;;;;;;;12.90;6.90;;;;;;;;;;5098285;28;20449;-80
2023/01/26 01:58:31;;;;;;;12.37;6.97;;;;;;;;;;5079724;28;20924;-79
2023/01/26 02:01:00;;;;;;;12.77;6.23;;;;;;;;;;5091211;28;20927;-78
2023/01/26 02:03:28;;;;;;;15.80;7.87;;;;;;;;;;5091132;28;20448;-80
2023/01/26 02:05:57;;;;;;;14.03;7.40;;;;;;;;;;5091856;28;20468;-81
2023/01/26 02:08:27;;;;;;;17.07;7.00;;;;;;;;;;5090835;28;20446;-80
2023/01/26 02:10:56;;;;;;;20.10;7.43;;;;;;;;;;5091210;28;20948;-80
2023/01/26 02:13:24;;;;;;;16.23;10.60;;;;;;;;;;5090877;28;20442;-80
2023/01/26 02:15:52;;;;;;;11.27;6.93;;;;;;;;;;5091324;28;20457;-80
2023/01/26 02:18:20;;;;;;;15.90;9.00;;;;;;;;;;5090492;28;20459;-70
2023/01/26 02:20:50;;;;;;;17.10;8.23;;;;;;;;;;5091588;28;20449;-80
2023/01/26 02:23:25;;;;;;;17.43;7.87;;;;;;;;;;5091527;28;20459;-80
2023/01/26 02:26:05;;;;;;;13.00;8.37;;;;;;;;;;5090833;28;20498;-80
2023/01/26 02:28:32;;;;;;;18.93;7.60;;;;;;;;;;5089775;28;20523;-78
2023/01/26 02:31:00;;;;;;;12.67;7.93;;;;;;;;;;5090613;28;20830;-79
2023/01/26 02:33:28;;;;;;;22.37;8.40;;;;;;;;;;5091079;28;20444;-79
2023/01/26 02:35:55;;;;;;;17.33;7.50;;;;;;;;;;5091223;28;20443;-80
2023/01/26 02:38:24;;;;;;;18.87;7.23;;;;;;;;;;5090228;28;20769;-79
2023/01/26 02:40:53;;;;;;;16.40;8.17;;;;;;;;;;5091143;28;20442;-79
2023/01/26 02:43:21;;;;;;;16.83;7.50;;;;;;;;;;5090709;28;20790;-80
2023/01/26 02:45:48;;;;;;;19.03;6.70;;;;;;;;;;5090935;28;20489;-78
2023/01/26 02:49:45;;;;;;;16.17;8.43;;;;;;;;;;5086921;28;20477;-79
2023/01/26 02:51:02;;;;;;;16.83;8.07;;;;;;;;;;5090963;28;20435;-80
2023/01/26 02:53:29;;;;;;;14.67;7.23;;;;;;;;;;5088568;28;20448;-79
2023/01/26 02:55:55;;;;;;;10.80;7.30;;;;;;;;;;5091326;28;20448;-80
2023/01/26 02:58:23;;;;;;;20.10;10.20;;;;;;;;;;5090432;28;20454;-80
2023/01/26 03:00:50;;;;;;;13.13;5.93;;;;;;;;;;5092755;28;20445;-80
2023/01/26 03:03:20;;;;;;;16.97;8.00;;;;;;;;;;5095122;28;20438;-79
2023/01/26 03:05:47;;;;;;;20.10;7.60;;;;;;;;;;5091374;28;20442;-80
2023/01/26 03:08:14;;;;;;;12.97;6.33;;;;;;;;;;5094975;28;20531;-79
2023/01/26 03:10:41;;;;;;;16.17;8.80;;;;;;;;;;5094534;28;20467;-79
2023/01/26 03:13:08;;;;;;;17.87;9.33;;;;;;;;;;5094850;28;20457;-80
2023/01/26 03:15:51;;;;;;;12.23;6.20;;;;;;;;;;5094631;28;20462;-80
2023/01/26 03:29:19;;;;;;;10.70;5.47;;;;;;;;;;5080684;28;20467;-72
2023/01/26 03:31:48;;;;;;;14.23;5.73;;;;;;;;;;5094840;28;20454;-75
2023/01/26 03:34:15;;;;;;;13.50;5.70;;;;;;;;;;5095068;28;20441;-80
2023/01/26 03:36:42;;;;;;;15.53;6.80;;;;;;;;;;5094225;28;20473;-79
2023/01/26 03:41:06;;;;;;;13.53;6.83;;;;;;;;;;5094509;28;20436;-81
2023/01/26 03:58:29;;;;;;;16.27;8.20;;;;;;;;;;5093346;28;20419;-80
2023/01/26 04:00:56;;;;;;;21.83;4.83;;;;;;;;;;5094401;28;20499;-77
2023/01/26 04:08:53;;;;;;;9.03;5.90;;;;;;;;;;5093648;28;20467;-81
2023/01/26 04:11:21;;;;;;;7.87;5.17;;;;;;;;;;5092842;28;20449;-80
2023/01/26 04:22:03;;;;;;;11.17;6.57;;;;;;;;;;5093918;28;20416;-80
2023/01/26 04:24:30;;;;;;;9.37;5.00;;;;;;;;;;5093468;28;20437;-80
2023/01/26 04:26:58;;;;;;;11.70;7.37;;;;;;;;;;5093772;28;20975;-79
2023/01/26 04:29:25;;;;;;;12.53;6.80;;;;;;;;;;5093047;28;20438;-80
2023/01/26 04:31:52;;;;;;;16.37;5.23;;;;;;;;;;5093439;28;20947;-80
2023/01/26 04:34:20;;;;;;;12.73;5.63;;;;;;;;;;5092969;28;20448;-72
2023/01/26 04:36:47;;;;;;;16.77;6.23;;;;;;;;;;5093600;28;20952;-80
2023/01/26 04:39:15;;;;;;;17.13;4.67;;;;;;;;;;5093589;28;20445;-80
2023/01/26 04:41:42;;;;;;;16.80;5.33;;;;;;;;;;5082645;28;20437;-80
2023/01/26 04:44:09;;;;;;;15.43;5.70;;;;;;;;;;5093098;28;21023;-80
2023/01/26 04:46:36;;;;;;;9.23;4.67;;;;;;;;;;5092788;28;20441;-81
2023/01/26 04:49:03;;;;;;;11.80;7.37;;;;;;;;;;5093096;28;20763;-81
2023/01/26 04:51:31;;;;;;;10.87;3.67;;;;;;;;;;5092707;28;20436;-80
2023/01/26 04:53:58;;;;;;;8.03;4.10;;;;;;;;;;5093212;28;20443;-80
2023/01/26 04:56:26;;;;;;;10.87;4.63;;;;;;;;;;5092984;28;20433;-81
2023/01/26 04:58:54;;;;;;;10.43;5.90;;;;;;;;;;5092290;28;20529;-80
2023/01/26 05:01:22;;;;;;;7.00;4.03;;;;;;;;;;5089998;28;20535;-79
2023/01/26 05:03:49;;;;;;;11.20;5.20;;;;;;;;;;5092731;28;20456;-76
2023/01/26 05:06:16;;;;;;;12.83;6.83;;;;;;;;;;5093231;28;20796;-81
2023/01/26 05:08:45;;;;;;;13.30;5.67;;;;;;;;;;5092525;28;20475;-80
2023/01/26 05:11:12;;;;;;;9.77;4.70;;;;;;;;;;5092763;28;20444;-80
2023/01/26 05:13:40;;;;;;;16.50;5.80;;;;;;;;;;5092447;28;20798;-80
2023/01/26 05:16:07;;;;;;;11.43;5.30;;;;;;;;;;5092677;28;20455;-81
2023/01/26 05:18:34;;;;;;;9.63;3.50;;;;;;;;;;5091229;28;20442;-80
2023/01/26 05:21:02;;;;;;;8.37;3.50;;;;;;;;;;5092222;28;20463;-81
2023/01/26 05:23:29;;;;;;;11.50;5.17;;;;;;;;;;5091205;28;20438;-79
2023/01/26 05:25:57;;;;;;;14.03;4.70;;;;;;;;;;5092343;28;20807;-80
2023/01/26 05:28:24;;;;;;;7.13;4.57;;;;;;;;;;5084917;28;20983;-77
2023/01/26 05:30:51;;;;;;;16.97;5.80;;;;;;;;;;5079173;28;20428;-80
2023/01/26 05:33:20;;;;;;;14.23;5.20;;;;;;;;;;5079093;28;20445;-69
2023/01/26 05:35:48;;;;;;;8.03;4.70;;;;;;;;;;5092582;28;20440;-81
2023/01/26 05:38:15;;;;;;;12.33;6.73;;;;;;;;;;5092062;28;20470;-80
2023/01/26 05:40:43;;;;;;;11.80;4.00;;;;;;;;;;5092203;28;20786;-80
2023/01/26 05:43:11;;;;;;;17.67;5.30;;;;;;;;;;5092265;28;20448;-80
2023/01/26 05:45:38;;;;;;;9.47;5.27;;;;;;;;;;5085893;28;20803;-80
2023/01/26 05:48:06;;;;;;;13.13;5.03;;;;;;;;;;5091430;28;20577;-78
2023/01/26 05:50:33;;;;;;;6.80;4.20;;;;;;;;;;5088390;28;20450;-82
2023/01/26 05:53:01;;;;;;;13.97;7.33;;;;;;;;;;5087249;28;20450;-78
2023/01/26 05:55:29;;;;;;;11.37;4.10;;;;;;;;;;5091684;28;20916;-80
2023/01/26 05:57:56;;;;;;;7.20;3.50;;;;;;;;;;5091888;28;20467;-80
2023/01/26 06:00:25;;;;;;;6.67;4.70;;;;;;;;;;5091700;28;20467;-81
2023/01/26 06:02:52;;;;;;;9.13;5.37;;;;;;;;;;5092553;28;20456;-81
2023/01/26 06:05:19;;;;;;;11.60;5.40;;;;;;;;;;5091662;28;20435;-74
2023/01/26 06:07:47;;;;;;;9.60;4.20;;;;;;;;;;5091635;28;20567;-74
2023/01/26 06:10:14;;;;;;;11.03;5.23;;;;;;;;;;5090374;28;20472;-75
2023/01/26 06:12:41;;;;;;;13.53;5.13;;;;;;;;;;5091546;28;20783;-76
2023/01/26 06:15:11;;;;;;;4.77;3.33;;;;;;;;;;5091687;28;20552;-76
2023/01/26 06:17:39;;;;;;;10.77;4.90;;;;;;;;;;5091378;28;20444;-75
2023/01/26 06:20:07;;;;;;;7.17;3.63;;;;;;;;;;5090986;28;20518;-81
2023/01/26 06:22:34;;;;;;;9.50;6.67;;;;;;;;;;5091149;28;20938;-81
2023/01/26 06:25:01;;;;;;;9.50;4.50;;;;;;;;;;5092091;28;20431;-81
2023/01/26 06:27:28;;;;;;;6.53;3.90;;;;;;;;;;5091513;28;20475;-79
2023/01/26 06:29:55;;;;;;;5.87;3.83;;;;;;;;;;5089316;28;20787;-72
2023/01/26 06:32:24;;;;;;;12.50;5.53;;;;;;;;;;5090326;28;20438;-72
2023/01/26 06:34:53;;;;;;;8.70;4.67;;;;;;;;;;5090983;28;20448;-78
2023/01/26 06:37:20;;;;;;;7.57;4.57;;;;;;;;;;5091331;28;20627;-76
2023/01/26 06:39:47;;;;;;;8.93;4.77;;;;;;;;;;5090798;28;20444;-77
2023/01/26 06:42:14;;;;;;;6.70;4.27;;;;;;;;;;5091844;28;20920;-77
2023/01/26 06:44:41;;;;;;;6.73;3.37;;;;;;;;;;5091263;28;20456;-77
2023/01/26 06:47:08;;;;;;;7.90;5.20;;;;;;;;;;5078507;28;20461;-77
2023/01/26 06:49:35;;;;;;;9.77;4.00;;;;;;;;;;5092250;28;20447;-74
2023/01/26 06:52:19;;;;;;;8.47;4.77;;;;;;;;;;5093947;28;20444;-77
2023/01/26 06:54:49;;;;;;;6.50;4.27;;;;;;;;;;5101065;28;20442;-77
2023/01/26 06:57:16;;;;;;;11.77;5.37;;;;;;;;;;5111320;28;20494;-77
2023/01/26 06:59:43;;;;;;;8.40;4.30;;;;;;;;;;5104493;28;20437;-77
2023/01/26 07:02:13;;;;;;;9.73;4.30;;;;;;;;;;5104600;28;20453;-77
2023/01/26 07:04:40;;;;;;;9.97;4.60;;;;;;;;;;5104654;28;20443;-77
2023/01/26 07:07:08;;;;;;;5.60;3.67;;;;;;;;;;5104139;28;20444;-77
2023/01/26 07:09:36;;;;;;;7.83;4.17;;;;;;;;;;5101776;28;20462;-78
2023/01/26 07:12:03;;;;;;;6.30;4.87;;;;;;;;;;5098468;28;20445;-77
2023/01/26 07:14:31;;;;;;;10.50;6.70;;;;;;;;;;5094330;28;20469;-77
2023/01/26 07:16:59;;;;;;;8.83;4.83;;;;;;;;;;5092071;28;20439;-77
2023/01/26 07:19:28;;;;;;;9.13;5.10;;;;;;;;;;5090259;28;20445;-77
2023/01/26 07:21:55;;;;;;;4.40;3.50;;;;;;;;;;5091463;28;20437;-77
2023/01/26 07:24:24;;;;;;;13.00;5.67;;;;;;;;;;5090609;28;20442;-77
2023/01/26 07:26:51;;;;;;;7.30;4.63;;;;;;;;;;5091284;28;20445;-77
2023/01/26 07:29:18;;;;;;;10.03;3.90;;;;;;;;;;5077720;28;20481;-77
2023/01/26 07:31:45;;;;;;;7.87;4.80;;;;;;;;;;5091117;28;20448;-77
2023/01/26 07:34:13;;;;;;;10.13;4.87;;;;;;;;;;5091151;28;20445;-77
2023/01/26 07:36:40;;;;;;;10.10;4.70;;;;;;;;;;5090503;28;20441;-77
2023/01/26 07:39:07;;;;;;;6.50;3.63;;;;;;;;;;5090784;28;20450;-78
2023/01/26 07:41:35;;;;;;;14.17;5.07;;;;;;;;;;5090260;28;20452;-77
2023/01/26 07:44:03;;;;;;;10.50;4.30;;;;;;;;;;5091015;28;20460;-77
2023/01/26 07:46:30;;;;;;;7.47;3.70;;;;;;;;;;5091660;28;20502;-77
2023/01/26 07:48:57;;;;;;;8.07;5.07;;;;;;;;;;5094372;28;20483;-77
2023/01/26 07:51:24;;;;;;;7.93;3.30;;;;;;;;;;5094223;28;20449;-77
2023/01/26 07:53:51;;;;;;;10.87;6.17;;;;;;;;;;5094444;28;20456;-77
2023/01/26 07:56:19;;;;;;;7.77;4.67;;;;;;;;;;5094650;28;20434;-69
2023/01/26 07:58:51;;;;;;;6.90;4.60;;;;;;;;;;5094458;28;20501;-77
2023/01/26 08:01:18;;;;;;;6.07;4.17;;;;;;;;;;5094859;28;20506;-77
2023/01/26 08:03:46;;;;;;;4.67;3.40;;;;;;;;;;5094597;28;20450;-78
2023/01/26 08:06:13;;;;;;;9.07;4.33;;;;;;;;;;5094215;28;20917;-77
2023/01/26 08:08:41;;;;;;;5.47;4.00;;;;;;;;;;5093632;28;20490;-77
2023/01/26 08:11:08;;;;;;;8.97;4.00;;;;;;;;;;5093988;28;20444;-75
2023/01/26 08:13:35;;;;;;;7.50;4.37;;;;;;;;;;5093979;28;20462;-77
2023/01/26 08:16:04;;;;;;;4.17;3.07;;;;;;;;;;5094379;28;20438;-77
2023/01/26 08:18:31;;;;;;;8.07;4.10;;;;;;;;;;5093370;28;20461;-77
2023/01/26 08:20:59;;;;;;;5.53;3.33;;;;;;;;;;5094174;28;20433;-77
2023/01/26 08:23:26;;;;;;;7.73;4.10;;;;;;;;;;5093795;28;20537;-77
2023/01/26 08:25:53;;;;;;;13.13;5.67;;;;;;;;;;5093752;28;20933;-77
2023/01/26 08:28:20;;;;;;;11.70;3.83;;;;;;;;;;5093084;28;20484;-76
2023/01/26 08:30:48;;;;;;;8.97;5.30;;;;;;;;;;5093978;28;20450;-77
2023/01/26 08:33:16;;;;;;;7.30;3.60;;;;;;;;;;5094096;28;20472;-77
2023/01/26 08:35:43;;;;;;;4.97;2.50;;;;;;;;;;5093072;28;20449;-77
2023/01/26 08:38:10;;;;;;;9.33;3.63;;;;;;;;;;5093439;28;20441;-76
2023/01/26 08:40:37;;;;;;;8.77;3.57;;;;;;;;;;5093432;28;20442;-77
2023/01/26 08:43:04;;;;;;;6.80;3.33;;;;;;;;;;5093807;28;20921;-76
2023/01/26 08:45:32;;;;;;;5.40;3.43;;;;;;;;;;5092853;28;20477;-77
2023/01/26 08:47:59;;;;;;;7.70;4.80;;;;;;;;;;5092991;28;20481;-74
2023/01/26 08:50:27;;;;;;;7.80;3.87;;;;;;;;;;5092949;28;20442;-77
2023/01/26 08:52:58;;;;;;;5.73;3.33;;;;;;;;;;5093622;28;20448;-76
2023/01/26 08:55:27;;;;;;;4.87;3.07;;;;;;;;;;5093084;28;20797;-77
2023/01/26 08:57:55;;;;;;;7.30;4.80;;;;;;;;;;5092167;28;20442;-77
2023/01/26 09:00:22;;;;;;;11.97;4.67;;;;;;;;;;5092623;28;20437;-76
2023/01/26 09:02:50;;;;;;;9.13;4.70;;;;;;;;;;5093252;28;20443;-76
2023/01/26 09:05:17;;;;;;;5.93;4.17;;;;;;;;;;5093648;28;20465;-77
2023/01/26 09:07:45;;;;;;;14.03;4.93;;;;;;;;;;5092967;28;20768;-77
2023/01/26 09:10:12;;;;;;;7.80;5.10;;;;;;;;;;5092956;28;20453;-76
2023/01/26 09:12:39;;;;;;;6.30;3.80;;;;;;;;;;5092726;28;20472;-76
2023/01/26 09:15:07;;;;;;;11.37;5.07;;;;;;;;;;5093015;28;20912;-77
2023/01/26 09:17:34;;;;;;;7.67;3.83;;;;;;;;;;5091975;28;20449;-77
2023/01/26 09:20:02;;;;;;;5.90;3.23;;;;;;;;;;5093235;28;20455;-76
2023/01/26 09:22:29;;;;;;;6.73;3.57;;;;;;;;;;5092158;28;20529;-76
2023/01/26 09:24:58;;;;;;;6.57;3.20;;;;;;;;;;5093157;28;20446;-77
2023/01/26 09:27:25;;;;;;;3.90;3.53;;;;;;;;;;5091877;28;20443;-75
2023/01/26 09:29:52;;;;;;;6.03;2.70;;;;;;;;;;5092570;28;20993;-76
2023/01/26 09:32:19;;;;;;;7.40;3.73;;;;;;;;;;5092044;28;20450;-72
2023/01/26 09:34:46;;;;;;;9.00;3.37;;;;;;;;;;5093047;28;20451;-76
2023/01/26 09:37:14;;;;;;;5.67;3.53;;;;;;;;;;5092773;28;20459;-77
2023/01/26 09:39:41;;;;;;;4.90;3.30;;;;;;;;;;5091526;28;21030;-76
2023/01/26 09:42:18;;;;;;;7.50;3.33;;;;;;;;;;5092414;28;20460;-76
2023/01/26 09:44:49;;;;;;;7.30;4.00;;;;;;;;;;5092387;28;20464;-77
2023/01/26 09:47:21;;;;;;;7.40;3.80;;;;;;;;;;5092581;28;20436;-76
2023/01/26 09:49:49;;;;;;;3.50;3.23;;;;;;;;;;5092538;28;20472;-75
2023/01/26 09:52:19;;;;;;;4.03;3.07;;;;;;;;;;5092610;28;20445;-77
2023/01/26 09:54:49;;;;;;;9.20;4.40;;;;;;;;;;5092487;28;20437;-76
2023/01/26 09:57:18;;;;;;;8.43;3.80;;;;;;;;;;5092625;28;20433;-76
2023/01/26 09:59:49;;;;;;;6.13;3.33;;;;;;;;;;5092367;28;20488;-77
2023/01/26 10:02:21;;;;;;;9.50;4.00;;;;;;;;;;5092239;28;20507;-75
2023/01/26 10:04:50;;;;;;;9.70;4.67;;;;;;;;;;5091993;28;20445;-77
2023/01/26 10:07:18;;;;;;;6.07;3.67;;;;;;;;;;5091801;28;20444;-73
2023/01/26 10:09:46;;;;;;;7.27;4.80;;;;;;;;;;5091129;28;20480;-75
2023/01/26 10:12:17;;;;;;;8.87;3.70;;;;;;;;;;5092174;28;20453;-76
2023/01/26 10:14:47;;;;;;;9.93;3.40;;;;;;;;;;5078480;28;20458;-77
2023/01/26 10:17:18;;;;;;;10.97;4.33;;;;;;;;;;5091599;28;20429;-76
2023/01/26 10:19:48;;;;;;;4.10;2.53;;;;;;;;;;5092221;28;20442;-77
2023/01/26 10:22:17;;;;;;;7.10;3.30;;;;;;;;;;5091952;28;20444;-76
2023/01/26 10:24:47;;;;;;;8.00;3.57;;;;;;;;;;5092302;28;20441;-76
2023/01/26 10:27:14;;;;;;;7.57;3.07;;;;;;;;;;5091818;28;20442;-76
2023/01/26 10:29:41;;;;;;;2.83;1.73;;;;;;;;;;5091326;28;20820;-76
2023/01/26 10:32:13;;;;;;;3.90;2.83;;;;;;;;;;5091664;28;20451;-77
2023/01/26 10:34:41;;;;;;;3.47;2.10;;;;;;;;;;5091152;28;20823;-76
2023/01/26 10:37:18;;;;;;;6.20;3.90;;;;;;;;;;5091486;28;20441;-77
2023/01/26 10:39:57;;;;;;;5.50;3.33;;;;;;;;;;5091475;28;20445;-76
2023/01/26 10:42:26;;;;;;;4.80;3.53;;;;;;;;;;5078772;28;20985;-76
2023/01/26 10:44:53;;;;;;;3.10;2.80;;;;;;;;;;5091124;28;20971;-76
2023/01/26 10:47:22;;;;;;;3.83;2.77;;;;;;;;;;5090339;28;20512;-75
2023/01/26 10:49:49;;;;;;;6.30;2.77;;;;;;;;;;5091197;28;20482;-74
2023/01/26 10:52:17;;;;;;;4.63;2.67;;;;;;;;;;5091384;28;20436;-78
2023/01/26 10:54:44;;;;;;;4.90;2.60;;;;;;;;;;5091497;28;20450;-76
2023/01/26 10:57:20;;;;;;;4.90;2.30;;;;;;;;;;5091406;28;20551;-73
2023/01/26 10:59:52;;;;;;;7.80;2.70;;;;;;;;;;5091555;28;20436;-77
2023/01/26 11:02:22;;;;;;;6.60;2.93;;;;;;;;;;5090357;28;20442;-72
2023/01/26 11:05:03;;;;;;;9.47;4.83;;;;;;;;;;5091415;28;20438;-75
2023/01/26 11:07:33;;;;;;;4.40;2.60;;;;;;;;;;5090324;28;20449;-76
2023/01/26 11:10:16;;;;;;;4.67;2.40;;;;;;;;;;5091295;28;20499;-76
2023/01/26 11:12:43;;;;;;;5.30;2.70;;;;;;;;;;5090940;28;20484;-76
2023/01/26 11:15:16;;;;;;;3.90;2.70;;;;;;;;;;5091005;28;20441;-77
2023/01/26 11:17:49;;;;;;;3.53;2.60;;;;;;;;;;5090374;28;20437;-77
2023/01/26 11:20:27;;;;;;;5.13;3.00;;;;;;;;;;5091357;28;20445;-74
2023/01/26 11:22:58;;;;;;;5.53;2.90;;;;;;;;;;5082366;28;20925;-76
2023/01/26 11:25:27;;;;;;;11.70;4.60;;;;;;;;;;5094317;28;20429;-76
2023/01/26 11:28:04;;;;;;;4.20;2.70;;;;;;;;;;5094603;28;20451;-76
2023/01/26 11:30:46;;;;;;;5.93;2.97;;;;;;;;;;5094179;28;20471;-75
2023/01/26 11:33:18;;;;;;;7.00;4.10;;;;;;;;;;5095093;28;20456;-77
2023/01/26 11:35:52;;;;;;;4.07;2.70;;;;;;;;;;5082706;28;20430;-76
2023/01/26 11:38:33;;;;;;;8.43;2.97;;;;;;;;;;5094175;28;20448;-68
2023/01/26 11:41:05;;;;;;;9.33;3.57;;;;;;;;;;5095014;28;20440;-75
2023/01/26 11:43:42;;;;;;;5.87;4.40;;;;;;;;;;5093904;28;20912;-76
2023/01/26 11:46:22;;;;;;;8.73;3.63;;;;;;;;;;5095068;28;20751;-77
2023/01/26 11:48:57;;;;;;;3.67;2.87;;;;;;;;;;5094277;28;20464;-75
2023/01/26 11:51:29;;;;;;;13.77;4.13;;;;;;;;;;5093986;28;20472;-76
2023/01/26 11:54:13;;;;;;;3.27;2.80;;;;;;;;;;5094895;28;20433;-77
2023/01/26 11:56:44;;;;;;;6.93;4.50;;;;;;;;;;5094186;28;20429;-75
2023/01/26 11:59:15;;;;;;;7.77;2.90;;;;;;;;;;5094294;28;20440;-76
2023/01/26 12:01:44;;;;;;;4.80;3.30;;;;;;;;;;5093918;28;20438;-76
2023/01/26 12:04:18;;;;;;;5.57;3.30;;;;;;;;;;5094315;28;20437;-77
2023/01/26 12:06:46;;;;;;;5.67;2.43;;;;;;;;;;5094745;28;20452;-76
2023/01/26 12:09:17;;;;;;;8.77;4.97;;;;;;;;;;5093577;28;20980;-77
2023/01/26 12:11:48;;;;;;;9.13;6.10;;;;;;;;;;5094325;28;20448;-76
2023/01/26 12:14:18;;;;;;;4.30;3.30;;;;;;;;;;5094605;28;20449;-76
2023/01/26 12:16:51;;;;;;;5.90;2.80;;;;;;;;;;5094516;28;20482;-77
2023/01/26 12:19:29;;;;;;;4.07;2.60;;;;;;;;;;5093467;28;20479;-76
2023/01/26 12:21:59;;;;;;;5.37;3.57;;;;;;;;;;5094339;28;20516;-76
2023/01/26 12:24:33;;;;;;;8.47;4.43;;;;;;;;;;5080539;28;20444;-76
2023/01/26 12:27:03;;;;;;;4.97;3.60;;;;;;;;;;5093751;28;20931;-77
2023/01/26 12:29:35;;;;;;;7.00;3.23;;;;;;;;;;5093553;28;20477;-77
2023/01/26 12:32:05;;;;;;;5.63;2.73;;;;;;;;;;5093607;28;20882;-76
2023/01/26 12:34:34;;;;;;;3.80;3.07;;;;;;;;;;5092017;28;20932;-75
2023/01/26 12:37:08;;;;;;;6.60;3.10;;;;;;;;;;5093949;28;20447;-76
2023/01/26 12:39:35;;;;;;;5.23;2.67;;;;;;;;;;5093034;28;20942;-76
2023/01/26 12:42:06;;;;;;;4.50;3.60;;;;;;;;;;5093816;28;20445;-76
2023/01/26 12:44:37;;;;;;;3.67;2.10;;;;;;;;;;5093052;28;20955;-76
2023/01/26 12:47:08;;;;;;;8.53;2.53;;;;;;;;;;5079725;28;20444;-75
2023/01/26 12:49:41;;;;;;;3.50;2.97;;;;;;;;;;5092894;28;20472;-76
2023/01/26 12:52:12;;;;;;;7.10;3.23;;;;;;;;;;5093598;28;20746;-77
2023/01/26 12:54:41;;;;;;;6.97;2.93;;;;;;;;;;5093046;28;20446;-76
2023/01/26 12:57:12;;;;;;;6.60;2.67;;;;;;;;;;5092861;28;20444;-76
2023/01/26 12:59:40;;;;;;;6.77;3.03;;;;;;;;;;5092879;28;20499;-76
2023/01/26 13:02:20;;;;;;;5.90;3.37;;;;;;;;;;5093446;28;20440;-76
2023/01/26 13:04:49;;;;;;;7.37;4.63;;;;;;;;;;5093380;28;20521;-77
2023/01/26 13:07:30;;;;;;;5.40;3.30;;;;;;;;;;5092842;28;20433;-73
2023/01/26 13:10:12;;;;;;;6.63;4.57;;;;;;;;;;5081042;28;20477;-73
2023/01/26 13:12:46;;;;;;;8.60;3.83;;;;;;;;;;5076165;28;20457;-77
2023/01/26 13:15:15;;;;;;;9.07;4.07;;;;;;;;;;5092821;28;20448;-76
2023/01/26 13:17:48;;;;;;;7.10;4.20;;;;;;;;;;5091726;28;20452;-75
2023/01/26 13:20:22;;;;;;;4.40;2.60;;;;;;;;;;5093188;28;20505;-76
2023/01/26 13:22:49;;;;;;;5.57;3.00;;;;;;;;;;5080339;28;20490;-76
2023/01/26 13:25:18;;;;;;;8.70;5.90;;;;;;;;;;5092779;28;20438;-77
2023/01/26 13:27:46;;;;;;;6.13;2.50;;;;;;;;;;5092714;28;20466;-76
2023/01/26 13:30:40;;;;;;;5.23;2.40;;;;;;;;;;5092728;28;20481;-77
2023/01/26 13:33:12;;;;;;;5.27;3.30;;;;;;;;;;5045176;28;20940;-77
2023/01/26 13:35:41;;;;;;;9.60;4.40;;;;;;;;;;5091948;28;20928;-77
2023/01/26 13:38:12;;;;;;;8.23;2.73;;;;;;;;;;5092392;28;20433;-77
2023/01/26 13:40:42;;;;;;;5.83;3.67;;;;;;;;;;5079070;28;20445;-77
2023/01/26 13:43:13;;;;;;;8.00;2.87;;;;;;;;;;5092708;28;20456;-76
2023/01/26 13:45:44;;;;;;;4.43;3.10;;;;;;;;;;5092175;28;20473;-77
2023/01/26 13:48:14;;;;;;;7.70;4.60;;;;;;;;;;5091895;28;20437;-77
2023/01/26 13:50:43;;;;;;;7.33;3.93;;;;;;;;;;5091998;28;20538;-78
2023/01/26 13:53:29;;;;;;;4.60;2.80;;;;;;;;;;5092385;28;20433;-76
2023/01/26 13:55:58;;;;;;;7.50;4.00;;;;;;;;;;5092546;28;20448;-77
2023/01/26 13:58:26;;;;;;;8.07;4.40;;;;;;;;;;5091305;28;20437;-77
2023/01/26 14:00:59;;;;;;;6.53;3.80;;;;;;;;;;5092413;28;20779;-77
2023/01/26 14:03:27;;;;;;;6.23;4.23;;;;;;;;;;5078771;28;20441;-77
2023/01/26 14:05:57;;;;;;;13.20;5.47;;;;;;;;;;5091895;28;20448;-77
2023/01/26 14:08:25;;;;;;;7.47;4.40;;;;;;;;;;5091033;28;20916;-77
2023/01/26 14:10:52;;;;;;;4.97;3.40;;;;;;;;;;5091643;28;20556;-77
2023/01/26 14:13:21;;;;;;;5.53;4.87;;;;;;;;;;5091622;28;20455;-75
2023/01/26 14:15:56;;;;;;;4.57;3.17;;;;;;;;;;5092117;28;20915;-74
2023/01/26 14:18:23;;;;;;;8.47;5.30;;;;;;;;;;5090907;28;20829;-77
2023/01/26 14:20:50;;;;;;;11.07;5.60;;;;;;;;;;5091747;28;20448;-76
2023/01/26 14:23:20;;;;;;;5.07;2.77;;;;;;;;;;5092136;28;20433;-77
2023/01/26 14:25:49;;;;;;;9.77;3.63;;;;;;;;;;5091901;28;20532;-77
2023/01/26 14:28:17;;;;;;;3.77;3.43;;;;;;;;;;5091279;28;20448;-76
2023/01/26 14:30:45;;;;;;;8.60;4.77;;;;;;;;;;5091815;28;20504;-80
2023/01/26 14:33:14;;;;;;;7.13;4.47;;;;;;;;;;5091316;28;20459;-77
2023/01/26 14:35:41;;;;;;;8.90;5.67;;;;;;;;;;5091101;28;20441;-77
2023/01/26 14:38:14;;;;;;;6.60;4.00;;;;;;;;;;5091088;28;20437;-76
2023/01/26 14:40:46;;;;;;;6.80;4.23;;;;;;;;;;5078689;28;20808;-76
2023/01/26 14:43:13;;;;;;;10.43;5.57;;;;;;;;;;5091273;28;20449;-77
2023/01/26 14:45:43;;;;;;;10.03;4.67;;;;;;;;;;5090623;28;20477;-77
2023/01/26 14:48:13;;;;;;;8.30;3.70;;;;;;;;;;5090895;28;20444;-77
2023/01/26 14:50:40;;;;;;;4.53;2.93;;;;;;;;;;5090889;28;20488;-77
2023/01/26 14:53:16;;;;;;;7.40;5.43;;;;;;;;;;5091378;28;20440;-77
2023/01/26 14:55:45;;;;;;;8.87;3.57;;;;;;;;;;5091076;28;20475;-77
2023/01/26 14:58:15;;;;;;;8.67;4.67;;;;;;;;;;5090764;28;20456;-77
2023/01/26 15:00:42;;;;;;;11.40;4.47;;;;;;;;;;5090898;28;20816;-77
2023/01/26 15:03:13;;;;;;;11.70;4.53;;;;;;;;;;5091171;28;20447;-77
2023/01/26 15:05:41;;;;;;;7.43;3.73;;;;;;;;;;5090915;28;20460;-77
2023/01/26 15:08:19;;;;;;;6.80;3.17;;;;;;;;;;5090744;28;20991;-76
2023/01/26 15:12:14;;;;;;;9.17;5.00;;;;;;;;;;5091145;28;20476;-77
2023/01/26 15:13:44;;;;;;;6.00;3.90;;;;;;;;;;5092608;28;20448;-76
2023/01/26 15:16:15;;;;;;;6.47;3.87;;;;;;;;;;5091024;28;20437;-77
2023/01/26 15:18:43;;;;;;;4.37;3.90;;;;;;;;;;5090351;28;20433;-73
2023/01/26 15:21:13;;;;;;;5.27;3.87;;;;;;;;;;5091315;28;20440;-76
2023/01/26 15:23:42;;;;;;;8.17;3.97;;;;;;;;;;5091540;28;20440;-77
2023/01/26 15:26:14;;;;;;;6.87;4.77;;;;;;;;;;5091737;28;20451;-75
2023/01/26 15:28:42;;;;;;;5.03;2.83;;;;;;;;;;5090251;28;20777;-77
2023/01/26 15:31:10;;;;;;;9.73;4.97;;;;;;;;;;5091132;28;20486;-77